sensor_id;sensor_type;location;lat;lon;timestamp;pressure;altitude;pressure_sealevel;temperature;humidity
47670;BME280;33408;52.062;11.722;2023-09-08T00:00:34;101692.41;;;17.71;100.00
47670;BME280;33408;52.062;11.722;2023-09-08T00:03:00;101691.81;;;17.62;100.00
47670;BME280;33408;52.062;11.722;2023-09-08T00:05:27;101683.94;;;17.62;100.00
47670;BME280;33408;52.062;11.722;2023-09-08T00:07:54;101691.28;;;17.51;100.00
47670;BME280;33408;52.062;11.722;2023-09-08T00:10:20;101683.22;;;17.57;100.00
47670;BME280;33408;52.062;11.722;2023-09-08T00:12:47;101687.69;;;17.55;100.00
47670;BME280;33408;52.062;11.722;2023-09-08T00:15:15;101685.41;;;17.44;100.00
47670;BME280;33408;52.062;11.722;2023-09-08T00:17:42;101686.00;;;17.26;100.00
47670;BME280;33408;52.062;11.722;2023-09-08T00:20:09;101678.13;;;17.26;100.00
47670;BME280;33408;52.062;11.722;2023-09-08T00:22:36;101681.03;;;17.17;100.00
47670;BME280;33408;52.062;11.722;2023-09-08T00:25:03;101681.31;;;17.07;100.00
47670;BME280;33408;52.062;11.722;2023-09-08T00:27:30;101677.97;;;17.02;100.00
47670;BME280;33408;52.062;11.722;2023-09-08T00:29:56;101680.72;;;16.98;100.00
47670;BME280;33408;52.062;11.722;2023-09-08T00:32:24;101685.25;;;16.92;100.00
47670;BME280;33408;52.062;11.722;2023-09-08T00:34:51;101675.72;;;16.90;100.00
47670;BME280;33408;52.062;11.722;2023-09-08T00:37:18;101681.88;;;16.89;100.00
47670;BME280;33408;52.062;11.722;2023-09-08T00:39:44;101675.06;;;16.82;100.00
47670;BME280;33408;52.062;11.722;2023-09-08T00:42:11;101676.72;;;16.86;100.00
47670;BME280;33408;52.062;11.722;2023-09-08T00:44:37;101676.88;;;16.80;100.00
47670;BME280;33408;52.062;11.722;2023-09-08T00:47:04;101680.59;;;16.71;100.00
47670;BME280;33408;52.062;11.722;2023-09-08T00:49:32;101677.66;;;16.82;100.00
47670;BME280;33408;52.062;11.722;2023-09-08T00:51:59;101680.34;;;16.80;100.00
47670;BME280;33408;52.062;11.722;2023-09-08T00:54:26;101684.72;;;16.80;100.00
47670;BME280;33408;52.062;11.722;2023-09-08T00:56:55;101683.41;;;16.65;100.00
47670;BME280;33408;52.062;11.722;2023-09-08T00:59:22;101679.66;;;16.73;100.00
47670;BME280;33408;52.062;11.722;2023-09-08T01:01:50;101684.03;;;16.73;100.00
47670;BME280;33408;52.062;11.722;2023-09-08T01:04:16;101678.59;;;16.79;100.00
47670;BME280;33408;52.062;11.722;2023-09-08T01:06:45;101676.16;;;16.74;100.00
47670;BME280;33408;52.062;11.722;2023-09-08T01:09:12;101670.56;;;16.55;100.00
47670;BME280;33408;52.062;11.722;2023-09-08T01:11:39;101679.72;;;16.40;100.00
47670;BME280;33408;52.062;11.722;2023-09-08T01:14:06;101673.69;;;16.37;100.00
47670;BME280;33408;52.062;11.722;2023-09-08T01:16:32;101680.09;;;16.27;100.00
47670;BME280;33408;52.062;11.722;2023-09-08T01:18:59;101673.06;;;16.29;100.00
47670;BME280;33408;52.062;11.722;2023-09-08T01:22:11;101685.41;;;16.23;100.00
47670;BME280;33408;52.062;11.722;2023-09-08T01:25:12;101686.63;;;16.10;100.00
47670;BME280;33408;52.062;11.722;2023-09-08T01:27:42;101685.28;;;15.94;100.00
47670;BME280;33408;52.062;11.722;2023-09-08T01:30:10;101683.16;;;16.10;100.00
47670;BME280;33408;52.062;11.722;2023-09-08T01:32:39;101680.59;;;16.07;100.00
47670;BME280;33408;52.062;11.722;2023-09-08T01:35:07;101689.38;;;16.06;100.00
47670;BME280;33408;52.062;11.722;2023-09-08T01:37:34;101697.81;;;15.81;100.00
47670;BME280;33408;52.062;11.722;2023-09-08T01:40:00;101693.41;;;15.84;100.00
47670;BME280;33408;52.062;11.722;2023-09-08T01:42:28;101693.47;;;15.81;100.00
47670;BME280;33408;52.062;11.722;2023-09-08T01:44:55;101698.88;;;15.72;100.00
47670;BME280;33408;52.062;11.722;2023-09-08T01:47:21;101695.34;;;15.76;100.00
47670;BME280;33408;52.062;11.722;2023-09-08T01:49:48;101695.28;;;15.79;100.00
47670;BME280;33408;52.062;11.722;2023-09-08T01:52:14;101695.19;;;15.81;100.00
47670;BME280;33408;52.062;11.722;2023-09-08T01:54:41;101689.84;;;15.49;100.00
47670;BME280;33408;52.062;11.722;2023-09-08T01:57:08;101696.38;;;15.67;100.00
47670;BME280;33408;52.062;11.722;2023-09-08T01:59:36;101698.19;;;15.65;100.00
47670;BME280;33408;52.062;11.722;2023-09-08T02:02:03;101699.28;;;15.55;100.00
47670;BME280;33408;52.062;11.722;2023-09-08T02:04:30;101691.44;;;15.55;100.00
47670;BME280;33408;52.062;11.722;2023-09-08T02:06:56;101680.63;;;15.35;100.00
47670;BME280;33408;52.062;11.722;2023-09-08T02:09:30;101693.28;;;15.52;100.00
47670;BME280;33408;52.062;11.722;2023-09-08T02:11:57;101693.00;;;15.64;100.00
47670;BME280;33408;52.062;11.722;2023-09-08T02:14:24;101685.31;;;15.56;100.00
47670;BME280;33408;52.062;11.722;2023-09-08T02:16:51;101684.63;;;15.12;100.00
47670;BME280;33408;52.062;11.722;2023-09-08T02:19:18;101685.75;;;15.39;100.00
47670;BME280;33408;52.062;11.722;2023-09-08T02:21:45;101677.91;;;15.39;100.00
47670;BME280;33408;52.062;11.722;2023-09-08T02:24:11;101679.47;;;15.09;100.00
47670;BME280;33408;52.062;11.722;2023-09-08T02:26:38;101682.31;;;15.36;100.00
47670;BME280;33408;52.062;11.722;2023-09-08T02:29:05;101681.56;;;15.30;100.00
47670;BME280;33408;52.062;11.722;2023-09-08T02:31:32;101674.78;;;15.23;100.00
47670;BME280;33408;52.062;11.722;2023-09-08T02:34:00;101672.25;;;15.20;100.00
47670;BME280;33408;52.062;11.722;2023-09-08T02:36:28;101675.28;;;15.00;100.00
47670;BME280;33408;52.062;11.722;2023-09-08T02:38:55;101674.13;;;15.13;100.00
47670;BME280;33408;52.062;11.722;2023-09-08T02:41:22;101671.81;;;15.00;100.00
47670;BME280;33408;52.062;11.722;2023-09-08T02:43:49;101667.53;;;14.95;100.00
47670;BME280;33408;52.062;11.722;2023-09-08T02:46:16;101671.09;;;14.93;100.00
47670;BME280;33408;52.062;11.722;2023-09-08T02:48:42;101673.38;;;15.07;100.00
47670;BME280;33408;52.062;11.722;2023-09-08T02:51:10;101671.09;;;14.93;100.00
47670;BME280;33408;52.062;11.722;2023-09-08T02:53:37;101665.69;;;15.02;100.00
47670;BME280;33408;52.062;11.722;2023-09-08T02:56:04;101667.94;;;14.77;100.00
47670;BME280;33408;52.062;11.722;2023-09-08T02:58:31;101670.72;;;14.69;100.00
47670;BME280;33408;52.062;11.722;2023-09-08T03:01:09;101662.66;;;14.80;100.00
47670;BME280;33408;52.062;11.722;2023-09-08T03:03:36;101666.72;;;14.93;100.00
47670;BME280;33408;52.062;11.722;2023-09-08T03:06:02;101665.25;;;14.82;100.00
47670;BME280;33408;52.062;11.722;2023-09-08T03:08:30;101665.19;;;14.85;100.00
47670;BME280;33408;52.062;11.722;2023-09-08T03:10:58;101658.38;;;14.76;100.00
47670;BME280;33408;52.062;11.722;2023-09-08T03:13:25;101658.34;;;14.77;100.00
47670;BME280;33408;52.062;11.722;2023-09-08T03:15:51;101650.16;;;14.52;100.00
47670;BME280;33408;52.062;11.722;2023-09-08T03:18:18;101651.84;;;14.55;100.00
47670;BME280;33408;52.062;11.722;2023-09-08T03:20:48;101640.59;;;14.51;100.00
47670;BME280;33408;52.062;11.722;2023-09-08T03:23:15;101643.16;;;14.54;100.00
47670;BME280;33408;52.062;11.722;2023-09-08T03:25:43;101646.13;;;14.36;100.00
47670;BME280;33408;52.062;11.722;2023-09-08T03:28:09;101647.78;;;14.40;100.00
47670;BME280;33408;52.062;11.722;2023-09-08T03:30:36;101643.84;;;14.19;100.00
47670;BME280;33408;52.062;11.722;2023-09-08T03:33:03;101643.22;;;14.06;100.00
47670;BME280;33408;52.062;11.722;2023-09-08T03:35:29;101645.38;;;14.29;100.00
47670;BME280;33408;52.062;11.722;2023-09-08T03:37:56;101640.84;;;14.39;100.00
47670;BME280;33408;52.062;11.722;2023-09-08T03:40:23;101647.78;;;14.40;100.00
47670;BME280;33408;52.062;11.722;2023-09-08T03:42:51;101642.56;;;14.40;100.00
47670;BME280;33408;52.062;11.722;2023-09-08T03:45:21;101642.47;;;14.46;100.00
47670;BME280;33408;52.062;11.722;2023-09-08T03:47:47;101646.97;;;14.38;100.00
47670;BME280;33408;52.062;11.722;2023-09-08T03:50:14;101647.13;;;14.29;100.00
47670;BME280;33408;52.062;11.722;2023-09-08T03:52:40;101646.34;;;14.25;100.00
47670;BME280;33408;52.062;11.722;2023-09-08T03:55:07;101648.22;;;14.18;100.00
47670;BME280;33408;52.062;11.722;2023-09-08T03:57:34;101655.06;;;14.22;100.00
47670;BME280;33408;52.062;11.722;2023-09-08T04:00:02;101655.94;;;14.23;100.00
47670;BME280;33408;52.062;11.722;2023-09-08T04:02:32;101657.66;;;14.24;100.00
47670;BME280;33408;52.062;11.722;2023-09-08T04:04:58;101661.16;;;14.21;100.00
47670;BME280;33408;52.062;11.722;2023-09-08T04:07:25;101668.41;;;14.07;100.00
47670;BME280;33408;52.062;11.722;2023-09-08T04:09:51;101665.25;;;13.90;100.00
47670;BME280;33408;52.062;11.722;2023-09-08T04:12:18;101663.72;;;13.75;100.00
47670;BME280;33408;52.062;11.722;2023-09-08T04:14:44;101667.03;;;13.84;100.00
47670;BME280;33408;52.062;11.722;2023-09-08T04:17:12;101662.66;;;13.88;100.00
47670;BME280;33408;52.062;11.722;2023-09-08T04:19:39;101667.72;;;13.96;100.00
47670;BME280;33408;52.062;11.722;2023-09-08T04:22:06;101668.56;;;13.98;100.00
47670;BME280;33408;52.062;11.722;2023-09-08T04:24:35;101667.66;;;13.99;100.00
47670;BME280;33408;52.062;11.722;2023-09-08T04:27:02;101665.06;;;13.99;100.00
47670;BME280;33408;52.062;11.722;2023-09-08T04:29:29;101667.00;;;13.88;100.00
47670;BME280;33408;52.062;11.722;2023-09-08T04:31:55;101667.63;;;14.02;100.00
47670;BME280;33408;52.062;11.722;2023-09-08T04:34:23;101661.69;;;13.92;100.00
47670;BME280;33408;52.062;11.722;2023-09-08T04:36:50;101668.31;;;14.10;100.00
47670;BME280;33408;52.062;11.722;2023-09-08T04:39:16;101655.13;;;14.19;100.00
47670;BME280;33408;52.062;11.722;2023-09-08T04:41:43;101670.03;;;14.13;100.00
47670;BME280;33408;52.062;11.722;2023-09-08T04:44:10;101661.97;;;14.27;100.00
47670;BME280;33408;52.062;11.722;2023-09-08T04:46:36;101657.91;;;14.10;100.00
47670;BME280;33408;52.062;11.722;2023-09-08T04:49:03;101656.84;;;14.20;100.00
47670;BME280;33408;52.062;11.722;2023-09-08T04:51:31;101663.19;;;14.07;100.00
47670;BME280;33408;52.062;11.722;2023-09-08T04:53:57;101659.50;;;14.19;100.00
47670;BME280;33408;52.062;11.722;2023-09-08T04:56:24;101665.66;;;14.13;100.00
47670;BME280;33408;52.062;11.722;2023-09-08T04:58:51;101660.47;;;14.12;100.00
47670;BME280;33408;52.062;11.722;2023-09-08T05:01:18;101663.84;;;14.20;100.00
47670;BME280;33408;52.062;11.722;2023-09-08T05:03:44;101653.47;;;14.15;100.00
47670;BME280;33408;52.062;11.722;2023-09-08T05:06:11;101656.72;;;14.28;100.00
47670;BME280;33408;52.062;11.722;2023-09-08T05:08:40;101659.34;;;14.28;100.00
47670;BME280;33408;52.062;11.722;2023-09-08T05:11:06;101660.13;;;14.32;100.00
47670;BME280;33408;52.062;11.722;2023-09-08T05:13:33;101663.50;;;14.37;100.00
47670;BME280;33408;52.062;11.722;2023-09-08T05:16:00;101660.75;;;14.45;100.00
47670;BME280;33408;52.062;11.722;2023-09-08T05:18:35;101663.59;;;14.32;100.00
47670;BME280;33408;52.062;11.722;2023-09-08T05:21:02;101659.22;;;14.33;100.00
47670;BME280;33408;52.062;11.722;2023-09-08T05:23:29;101660.03;;;14.36;100.00
47670;BME280;33408;52.062;11.722;2023-09-08T05:25:57;101665.59;;;14.65;100.00
47670;BME280;33408;52.062;11.722;2023-09-08T05:28:23;101666.06;;;14.84;100.00
47670;BME280;33408;52.062;11.722;2023-09-08T05:30:50;101662.25;;;14.99;100.00
47670;BME280;33408;52.062;11.722;2023-09-08T05:33:17;101661.94;;;15.14;100.00
47670;BME280;33408;52.062;11.722;2023-09-08T05:35:44;101656.50;;;15.23;100.00
47670;BME280;33408;52.062;11.722;2023-09-08T05:38:11;101664.47;;;15.17;100.00
47670;BME280;33408;52.062;11.722;2023-09-08T05:40:38;101669.75;;;15.14;100.00
47670;BME280;33408;52.062;11.722;2023-09-08T05:43:06;101673.22;;;15.54;100.00
47670;BME280;33408;52.062;11.722;2023-09-08T05:45:32;101673.56;;;15.74;100.00
47670;BME280;33408;52.062;11.722;2023-09-08T05:47:59;101663.59;;;15.90;100.00
47670;BME280;33408;52.062;11.722;2023-09-08T05:50:26;101665.91;;;16.02;100.00
47670;BME280;33408;52.062;11.722;2023-09-08T05:52:52;101666.47;;;16.14;100.00
47670;BME280;33408;52.062;11.722;2023-09-08T05:55:19;101663.63;;;16.23;100.00
47670;BME280;33408;52.062;11.722;2023-09-08T05:57:47;101667.00;;;16.27;100.00
47670;BME280;33408;52.062;11.722;2023-09-08T06:00:15;101665.72;;;16.41;100.00
47670;BME280;33408;52.062;11.722;2023-09-08T06:02:42;101665.03;;;16.35;100.00
47670;BME280;33408;52.062;11.722;2023-09-08T06:05:09;101665.13;;;16.63;100.00
47670;BME280;33408;52.062;11.722;2023-09-08T06:07:35;101657.19;;;16.96;100.00
47670;BME280;33408;52.062;11.722;2023-09-08T06:10:02;101663.19;;;17.00;100.00
47670;BME280;33408;52.062;11.722;2023-09-08T06:12:29;101665.50;;;17.10;100.00
47670;BME280;33408;52.062;11.722;2023-09-08T06:14:56;101669.53;;;17.21;100.00
47670;BME280;33408;52.062;11.722;2023-09-08T06:17:24;101664.84;;;17.30;100.00
47670;BME280;33408;52.062;11.722;2023-09-08T06:19:51;101657.25;;;17.49;100.00
47670;BME280;33408;52.062;11.722;2023-09-08T06:22:17;101662.91;;;17.64;100.00
47670;BME280;33408;52.062;11.722;2023-09-08T06:24:44;101656.91;;;17.87;100.00
47670;BME280;33408;52.062;11.722;2023-09-08T06:27:13;101658.97;;;18.29;100.00
47670;BME280;33408;52.062;11.722;2023-09-08T06:29:40;101661.09;;;18.67;100.00
47670;BME280;33408;52.062;11.722;2023-09-08T06:32:08;101658.59;;;18.87;100.00
47670;BME280;33408;52.062;11.722;2023-09-08T06:34:37;101659.56;;;18.83;100.00
47670;BME280;33408;52.062;11.722;2023-09-08T06:37:03;101657.47;;;18.93;100.00
47670;BME280;33408;52.062;11.722;2023-09-08T06:39:30;101658.13;;;19.22;100.00
47670;BME280;33408;52.062;11.722;2023-09-08T06:41:57;101653.06;;;18.95;100.00
47670;BME280;33408;52.062;11.722;2023-09-08T06:44:23;101653.59;;;19.25;100.00
47670;BME280;33408;52.062;11.722;2023-09-08T06:46:50;101652.97;;;19.41;100.00
47670;BME280;33408;52.062;11.722;2023-09-08T06:49:16;101658.88;;;19.46;100.00
47670;BME280;33408;52.062;11.722;2023-09-08T06:51:44;101655.16;;;19.52;100.00
47670;BME280;33408;52.062;11.722;2023-09-08T06:54:12;101646.16;;;19.79;100.00
47670;BME280;33408;52.062;11.722;2023-09-08T06:56:39;101650.88;;;19.49;100.00
47670;BME280;33408;52.062;11.722;2023-09-08T06:59:06;101664.72;;;19.75;100.00
47670;BME280;33408;52.062;11.722;2023-09-08T07:01:32;101650.59;;;19.98;100.00
47670;BME280;33408;52.062;11.722;2023-09-08T07:03:59;101655.88;;;19.77;100.00
47670;BME280;33408;52.062;11.722;2023-09-08T07:06:25;101651.94;;;20.08;100.00
47670;BME280;33408;52.062;11.722;2023-09-08T07:08:53;101652.53;;;19.94;100.00
47670;BME280;33408;52.062;11.722;2023-09-08T07:11:20;101643.88;;;19.70;100.00
47670;BME280;33408;52.062;11.722;2023-09-08T07:13:46;101643.25;;;19.85;100.00
47670;BME280;33408;52.062;11.722;2023-09-08T07:16:13;101646.78;;;20.26;100.00
47670;BME280;33408;52.062;11.722;2023-09-08T07:18:39;101645.28;;;19.99;100.00
47670;BME280;33408;52.062;11.722;2023-09-08T07:21:06;101642.50;;;20.02;100.00
47670;BME280;33408;52.062;11.722;2023-09-08T07:23:34;101638.38;;;20.36;100.00
47670;BME280;33408;52.062;11.722;2023-09-08T07:26:03;101647.78;;;20.42;100.00
47670;BME280;33408;52.062;11.722;2023-09-08T07:28:31;101647.41;;;20.70;100.00
47670;BME280;33408;52.062;11.722;2023-09-08T07:31:01;101642.38;;;20.66;100.00
47670;BME280;33408;52.062;11.722;2023-09-08T07:33:27;101645.00;;;20.66;100.00
47670;BME280;33408;52.062;11.722;2023-09-08T07:35:54;101642.41;;;20.83;100.00
47670;BME280;33408;52.062;11.722;2023-09-08T07:38:20;101636.94;;;20.88;100.00
47670;BME280;33408;52.062;11.722;2023-09-08T07:40:47;101645.66;;;21.07;100.00
47670;BME280;33408;52.062;11.722;2023-09-08T07:43:15;101651.53;;;21.31;100.00
47670;BME280;33408;52.062;11.722;2023-09-08T07:45:42;101653.38;;;21.48;100.00
47670;BME280;33408;52.062;11.722;2023-09-08T07:48:08;101646.84;;;21.73;100.00
47670;BME280;33408;52.062;11.722;2023-09-08T07:50:35;101647.50;;;21.78;100.00
47670;BME280;33408;52.062;11.722;2023-09-08T07:53:01;101647.94;;;22.20;100.00
47670;BME280;33408;52.062;11.722;2023-09-08T07:55:28;101646.28;;;22.19;100.00
47670;BME280;33408;52.062;11.722;2023-09-08T07:57:55;101648.50;;;22.27;100.00
47670;BME280;33408;52.062;11.722;2023-09-08T08:00:24;101641.59;;;22.24;100.00
47670;BME280;33408;52.062;11.722;2023-09-08T08:02:55;101645.25;;;22.55;100.00
47670;BME280;33408;52.062;11.722;2023-09-08T08:05:22;101646.34;;;22.17;100.00
47670;BME280;33408;52.062;11.722;2023-09-08T08:07:49;101648.03;;;22.36;100.00
47670;BME280;33408;52.062;11.722;2023-09-08T08:10:16;101646.09;;;22.71;100.00
47670;BME280;33408;52.062;11.722;2023-09-08T08:12:43;101646.81;;;22.59;100.00
47670;BME280;33408;52.062;11.722;2023-09-08T08:15:11;101641.69;;;22.72;100.00
47670;BME280;33408;52.062;11.722;2023-09-08T08:17:39;101646.03;;;22.89;99.63
47670;BME280;33408;52.062;11.722;2023-09-08T08:20:07;101645.59;;;22.97;100.00
47670;BME280;33408;52.062;11.722;2023-09-08T08:22:35;101639.22;;;22.85;98.40
47670;BME280;33408;52.062;11.722;2023-09-08T08:25:02;101639.75;;;23.07;99.30
47670;BME280;33408;52.062;11.722;2023-09-08T08:27:29;101632.66;;;23.08;95.91
47670;BME280;33408;52.062;11.722;2023-09-08T08:29:56;101642.16;;;23.26;95.63
47670;BME280;33408;52.062;11.722;2023-09-08T08:32:24;101636.81;;;23.58;94.86
47670;BME280;33408;52.062;11.722;2023-09-08T08:34:52;101631.63;;;23.71;91.70
47670;BME280;33408;52.062;11.722;2023-09-08T08:37:19;101634.91;;;23.46;91.56
47670;BME280;33408;52.062;11.722;2023-09-08T08:39:46;101635.28;;;23.54;91.12
47670;BME280;33408;52.062;11.722;2023-09-08T08:42:12;101624.47;;;23.73;90.06
47670;BME280;33408;52.062;11.722;2023-09-08T08:44:40;101627.38;;;23.69;90.36
47670;BME280;33408;52.062;11.722;2023-09-08T08:47:09;101631.50;;;23.89;90.46
47670;BME280;33408;52.062;11.722;2023-09-08T08:49:38;101626.88;;;23.92;88.40
47670;BME280;33408;52.062;11.722;2023-09-08T08:52:09;101624.50;;;24.02;88.02
47670;BME280;33408;52.062;11.722;2023-09-08T08:54:38;101611.00;;;24.07;83.75
47670;BME280;33408;52.062;11.722;2023-09-08T08:57:05;101611.16;;;24.47;84.56
47670;BME280;33408;52.062;11.722;2023-09-08T08:59:32;101610.13;;;24.64;84.35
47670;BME280;33408;52.062;11.722;2023-09-08T09:02:04;101616.56;;;24.60;84.84
47670;BME280;33408;52.062;11.722;2023-09-08T09:04:33;101606.22;;;24.40;84.56
47670;BME280;33408;52.062;11.722;2023-09-08T09:07:00;101619.47;;;24.69;83.46
47670;BME280;33408;52.062;11.722;2023-09-08T09:09:28;101617.44;;;24.87;80.98
47670;BME280;33408;52.062;11.722;2023-09-08T09:11:55;101615.28;;;24.80;81.30
47670;BME280;33408;52.062;11.722;2023-09-08T09:14:22;101617.22;;;24.90;80.38
47670;BME280;33408;52.062;11.722;2023-09-08T09:16:49;101610.16;;;24.91;78.31
47670;BME280;33408;52.062;11.722;2023-09-08T09:19:20;101608.28;;;24.79;77.89
47670;BME280;33408;52.062;11.722;2023-09-08T09:21:53;101603.88;;;24.92;75.75
47670;BME280;33408;52.062;11.722;2023-09-08T09:24:30;101613.06;;;25.28;75.83
47670;BME280;33408;52.062;11.722;2023-09-08T09:26:58;101605.66;;;25.19;74.90
47670;BME280;33408;52.062;11.722;2023-09-08T09:29:26;101613.63;;;25.19;72.70
47670;BME280;33408;52.062;11.722;2023-09-08T09:31:54;101597.56;;;25.07;73.43
47670;BME280;33408;52.062;11.722;2023-09-08T09:34:21;101598.94;;;25.40;73.65
47670;BME280;33408;52.062;11.722;2023-09-08T09:36:49;101597.59;;;25.20;73.70
47670;BME280;33408;52.062;11.722;2023-09-08T09:39:20;101591.00;;;25.66;73.20
47670;BME280;33408;52.062;11.722;2023-09-08T09:41:48;101598.59;;;25.32;72.22
47670;BME280;33408;52.062;11.722;2023-09-08T09:44:15;101591.78;;;25.68;70.45
47670;BME280;33408;52.062;11.722;2023-09-08T09:46:45;101588.13;;;25.69;70.62
47670;BME280;33408;52.062;11.722;2023-09-08T09:49:12;101585.38;;;25.58;70.17
47670;BME280;33408;52.062;11.722;2023-09-08T09:51:45;101577.13;;;26.01;71.42
47670;BME280;33408;52.062;11.722;2023-09-08T09:54:12;101582.63;;;25.98;71.09
47670;BME280;33408;52.062;11.722;2023-09-08T09:56:40;101573.72;;;25.73;69.00
47670;BME280;33408;52.062;11.722;2023-09-08T09:59:10;101578.16;;;25.98;71.13
47670;BME280;33408;52.062;11.722;2023-09-08T10:01:38;101574.31;;;26.28;67.25
47670;BME280;33408;52.062;11.722;2023-09-08T10:04:05;101574.34;;;26.02;67.83
47670;BME280;33408;52.062;11.722;2023-09-08T10:06:33;101578.13;;;26.24;66.67
47670;BME280;33408;52.062;11.722;2023-09-08T10:09:01;101572.16;;;26.33;66.64
47670;BME280;33408;52.062;11.722;2023-09-08T10:11:34;101576.84;;;26.30;65.53
47670;BME280;33408;52.062;11.722;2023-09-08T10:14:01;101573.00;;;26.34;65.49
47670;BME280;33408;52.062;11.722;2023-09-08T10:16:34;101569.69;;;26.43;64.78
47670;BME280;33408;52.062;11.722;2023-09-08T10:19:06;101567.63;;;26.47;63.86
47670;BME280;33408;52.062;11.722;2023-09-08T10:21:36;101572.13;;;26.46;63.65
47670;BME280;33408;52.062;11.722;2023-09-08T10:24:12;101571.66;;;26.65;62.74
47670;BME280;33408;52.062;11.722;2023-09-08T10:26:41;101568.50;;;26.47;63.47
47670;BME280;33408;52.062;11.722;2023-09-08T10:29:09;101571.22;;;26.59;64.41
47670;BME280;33408;52.062;11.722;2023-09-08T10:31:38;101566.88;;;26.57;62.33
47670;BME280;33408;52.062;11.722;2023-09-08T10:34:06;101560.81;;;26.68;61.53
47670;BME280;33408;52.062;11.722;2023-09-08T10:36:34;101563.44;;;26.92;60.05
47670;BME280;33408;52.062;11.722;2023-09-08T10:39:31;101562.84;;;26.89;58.88
47670;BME280;33408;52.062;11.722;2023-09-08T10:42:20;101561.47;;;26.83;59.45
47670;BME280;33408;52.062;11.722;2023-09-08T10:44:56;101570.00;;;27.00;60.78
47670;BME280;33408;52.062;11.722;2023-09-08T10:47:24;101559.06;;;27.27;59.99
47670;BME280;33408;52.062;11.722;2023-09-08T10:49:51;101561.75;;;27.27;59.51
47670;BME280;33408;52.062;11.722;2023-09-08T10:52:23;101560.28;;;27.58;59.00
47670;BME280;33408;52.062;11.722;2023-09-08T10:54:51;101549.97;;;27.54;55.20
47670;BME280;33408;52.062;11.722;2023-09-08T10:57:20;101547.19;;;27.44;55.55
47670;BME280;33408;52.062;11.722;2023-09-08T10:59:51;101548.28;;;27.53;55.29
47670;BME280;33408;52.062;11.722;2023-09-08T11:02:35;101544.88;;;27.51;56.19
47670;BME280;33408;52.062;11.722;2023-09-08T11:05:03;101547.78;;;27.59;56.11
47670;BME280;33408;52.062;11.722;2023-09-08T11:07:30;101547.66;;;27.38;54.14
47670;BME280;33408;52.062;11.722;2023-09-08T11:09:57;101547.66;;;27.49;53.87
47670;BME280;33408;52.062;11.722;2023-09-08T11:12:26;101548.03;;;27.56;55.50
47670;BME280;33408;52.062;11.722;2023-09-08T11:14:53;101538.72;;;27.61;53.87
47670;BME280;33408;52.062;11.722;2023-09-08T11:17:20;101532.91;;;27.68;54.46
47670;BME280;33408;52.062;11.722;2023-09-08T11:19:49;101542.63;;;28.02;53.74
47670;BME280;33408;52.062;11.722;2023-09-08T11:22:16;101540.28;;;27.75;54.87
47670;BME280;33408;52.062;11.722;2023-09-08T11:24:43;101534.25;;;27.84;54.68
47670;BME280;33408;52.062;11.722;2023-09-08T11:27:11;101532.66;;;27.82;54.00
47670;BME280;33408;52.062;11.722;2023-09-08T11:29:38;101533.75;;;27.91;54.37
47670;BME280;33408;52.062;11.722;2023-09-08T11:32:06;101530.00;;;27.93;52.59
47670;BME280;33408;52.062;11.722;2023-09-08T11:34:34;101531.25;;;28.00;53.84
47670;BME280;33408;52.062;11.722;2023-09-08T11:37:05;101520.47;;;28.02;52.86
47670;BME280;33408;52.062;11.722;2023-09-08T11:39:37;101524.53;;;28.40;53.02
47670;BME280;33408;52.062;11.722;2023-09-08T11:42:04;101527.03;;;28.42;52.56
47670;BME280;33408;52.062;11.722;2023-09-08T11:44:31;101528.00;;;28.52;52.56
47670;BME280;33408;52.062;11.722;2023-09-08T11:46:57;101516.25;;;28.43;51.88
47670;BME280;33408;52.062;11.722;2023-09-08T11:49:25;101505.28;;;28.14;52.79
47670;BME280;33408;52.062;11.722;2023-09-08T11:51:51;101511.59;;;28.24;52.73
47670;BME280;33408;52.062;11.722;2023-09-08T11:54:19;101510.09;;;28.31;52.74
47670;BME280;33408;52.062;11.722;2023-09-08T11:56:47;101507.00;;;28.15;52.24
47670;BME280;33408;52.062;11.722;2023-09-08T11:59:14;101508.59;;;28.50;51.81
47670;BME280;33408;52.062;11.722;2023-09-08T12:01:41;101507.72;;;28.61;51.18
47670;BME280;33408;52.062;11.722;2023-09-08T12:04:17;101507.19;;;28.34;51.42
47670;BME280;33408;52.062;11.722;2023-09-08T12:06:43;101508.72;;;28.60;51.01
47670;BME280;33408;52.062;11.722;2023-09-08T12:09:10;101510.53;;;28.59;49.94
47670;BME280;33408;52.062;11.722;2023-09-08T12:11:39;101506.56;;;28.42;50.97
47670;BME280;33408;52.062;11.722;2023-09-08T12:14:09;101512.94;;;28.51;51.55
47670;BME280;33408;52.062;11.722;2023-09-08T12:16:36;101510.44;;;28.38;52.44
47670;BME280;33408;52.062;11.722;2023-09-08T12:19:03;101515.94;;;28.69;50.83
47670;BME280;33408;52.062;11.722;2023-09-08T12:21:29;101510.69;;;28.79;51.54
47670;BME280;33408;52.062;11.722;2023-09-08T12:23:57;101502.00;;;28.65;51.42
47670;BME280;33408;52.062;11.722;2023-09-08T12:26:24;101494.22;;;28.73;51.03
47670;BME280;33408;52.062;11.722;2023-09-08T12:28:53;101495.47;;;28.69;50.70
47670;BME280;33408;52.062;11.722;2023-09-08T12:31:19;101490.78;;;29.04;50.18
47670;BME280;33408;52.062;11.722;2023-09-08T12:33:46;101489.50;;;29.19;50.97
47670;BME280;33408;52.062;11.722;2023-09-08T12:36:14;101478.44;;;29.24;50.71